Time;durP1;ratioP1;P1;durP2;ratioP2;P2;SDS_P1;SDS_P2;PMS_P1;PMS_P2;Temp;Humidity;BMP_temperature;BMP_pressure;BME280_temperature;BME280_humidity;BME280_pressure;Samples;Min_cycle;Max_cycle;Signal;HPM_P1;HPM_P2
2022/05/24 00:00:11;;;;;;;10.60;3.23;;;;;;;20.65;38.36;100770.44;2485258;23;20199;-69
2022/05/24 00:01:11;;;;;;;7.77;2.37;;;;;;;19.88;37.93;100653.47;2497328;23;20151;-69
2022/05/24 00:02:12;;;;;;;7.37;1.60;;;;;;;20.65;37.29;100780.91;2498097;23;20414;-69
2022/05/24 00:03:12;;;;;;;5.93;2.20;;;;;;;20.53;38.14;100768.03;2497728;23;20209;-69
2022/05/24 00:04:13;;;;;;;4.70;1.60;;;;;;;20.51;38.39;100784.63;2498305;23;20186;-69
2022/05/24 00:05:14;;;;;;;5.77;1.90;;;;;;;20.29;38.44;100745.78;2497833;23;20182;-69
2022/05/24 00:06:15;;;;;;;5.87;1.97;;;;;;;20.06;38.86;100706.63;2498348;23;20162;-69
2022/05/24 00:07:15;;;;;;;5.07;1.60;;;;;;;20.58;38.26;100767.31;2496871;23;20391;-69
2022/05/24 00:08:16;;;;;;;2.47;1.40;;;;;;;20.49;37.97;100773.09;2497999;23;20618;-69
2022/05/24 00:09:16;;;;;;;3.83;1.40;;;;;;;20.51;38.10;100773.34;2497816;23;20263;-69
2022/05/24 00:10:21;;;;;;;5.13;1.50;;;;;;;20.45;38.61;100772.53;2496908;23;20511;-69
2022/05/24 00:11:22;;;;;;;5.17;1.40;;;;;;;20.33;38.89;100763.22;2497263;23;20559;-69
2022/05/24 00:12:22;;;;;;;4.10;1.20;;;;;;;20.22;39.17;100760.25;2498230;23;20392;-69
2022/05/24 00:13:23;;;;;;;2.83;1.10;;;;;;;19.58;39.52;100688.66;2498053;23;20853;-69
2022/05/24 00:15:43;;;;;;;4.77;1.10;;;;;;;19.95;40.00;100751.50;2497530;23;20143;-69
2022/05/24 00:16:43;;;;;;;4.30;1.20;;;;;;;19.57;39.90;100709.59;2497457;23;20388;-69
2022/05/24 00:17:48;;;;;;;1.90;1.10;;;;;;;19.92;40.33;100777.78;2497617;23;20442;-69
2022/05/24 00:18:48;;;;;;;3.87;1.30;;;;;;;19.83;40.71;100772.28;2498196;23;20153;-70
2022/05/24 00:19:49;;;;;;;4.03;1.20;;;;;;;19.87;41.01;100786.94;2497221;23;20418;-69
2022/05/24 00:20:55;;;;;;;5.23;1.43;;;;;;;19.87;41.13;100784.91;2497344;23;20153;-69
2022/05/24 00:21:55;;;;;;;5.13;1.50;;;;;;;19.64;41.96;100762.59;2486567;23;20661;-69
2022/05/24 00:22:56;;;;;;;3.07;1.30;;;;;;;19.43;42.00;100721.66;2497223;23;20814;-69
2022/05/24 00:23:57;;;;;;;2.97;1.37;;;;;;;19.34;42.39;100725.38;2498045;23;20217;-69
2022/05/24 00:25:01;;;;;;;3.30;1.40;;;;;;;19.66;42.69;100780.50;2497939;23;20160;-70
2022/05/24 00:26:06;;;;;;;2.27;1.10;;;;;;;19.62;42.99;100774.34;2498136;23;20157;-69
2022/05/24 00:27:07;;;;;;;2.40;1.30;;;;;;;18.95;43.59;100698.75;2497022;23;20366;-69
2022/05/24 00:28:08;;;;;;;6.80;1.50;;;;;;;19.47;43.84;100775.63;2497154;23;20393;-70
2022/05/24 00:29:09;;;;;;;6.20;1.57;;;;;;;19.32;44.29;100764.47;2496962;23;20192;-69
2022/05/24 00:30:10;;;;;;;6.30;1.50;;;;;;;19.37;44.97;100777.81;2497877;23;20388;-69
2022/05/24 00:31:10;;;;;;;3.40;1.50;;;;;;;19.27;45.73;100778.41;2497854;23;20158;-69
2022/05/24 00:32:11;;;;;;;4.87;1.80;;;;;;;19.20;46.17;100782.38;2498057;23;20483;-70
2022/05/24 00:33:11;;;;;;;4.27;1.70;;;;;;;19.26;46.61;100797.31;2497796;23;20157;-70
2022/05/24 00:34:12;;;;;;;4.33;1.60;;;;;;;18.62;46.79;100706.63;2498050;23;20238;-69
2022/05/24 00:35:14;;;;;;;6.27;1.47;;;;;;;19.19;47.11;100794.88;2497889;23;20156;-69
2022/05/24 00:36:16;;;;;;;3.63;1.60;;;;;;;19.27;47.16;100803.69;2498301;23;20432;-69
2022/05/24 00:37:23;;;;;;;7.33;1.50;;;;;;;18.92;47.14;100753.06;2496763;23;20388;-69
2022/05/24 00:38:29;;;;;;;5.43;1.50;;;;;;;19.21;47.51;100794.38;2497894;23;20779;-69
2022/05/24 00:39:30;;;;;;;4.80;1.83;;;;;;;18.85;47.78;100773.13;2497717;23;20368;-69
2022/05/24 00:40:52;;;;;;;6.37;2.20;;;;;;;19.05;48.15;100803.31;2497558;23;20374;-69
2022/05/24 00:42:01;;;;;;;4.60;1.60;;;;;;;18.70;48.79;100774.38;2497993;23;20591;-69
2022/05/24 00:43:05;;;;;;;5.40;1.70;;;;;;;18.85;48.95;100808.84;2497938;23;20378;-69
2022/05/24 00:44:19;;;;;;;7.50;1.70;;;;;;;18.84;49.15;100813.69;2498216;23;20479;-69
2022/05/24 00:45:29;;;;;;;5.03;1.80;;;;;;;18.33;49.46;100757.16;2498083;23;20872;-69
2022/05/24 00:46:42;;;;;;;6.40;2.03;;;;;;;18.59;49.95;100814.28;2497542;23;20365;-69
2022/05/24 00:47:54;;;;;;;5.40;1.90;;;;;;;18.08;49.98;100738.78;2497733;23;20368;-69
2022/05/24 00:48:57;;;;;;;4.43;1.43;;;;;;;18.42;50.26;100813.16;2498019;23;20365;-69
2022/05/24 00:50:04;;;;;;;3.57;1.60;;;;;;;17.90;50.37;100749.38;2497470;23;20878;-70
2022/05/24 00:51:10;;;;;;;2.80;1.70;;;;;;;18.13;50.32;100794.22;2497765;23;20461;-69
2022/05/24 00:52:13;;;;;;;5.73;2.00;;;;;;;18.31;50.75;100817.78;2498119;23;20424;-69
2022/05/24 00:53:22;;;;;;;4.63;1.80;;;;;;;18.28;50.89;100825.88;2497550;23;20385;-69
2022/05/24 00:54:23;;;;;;;4.03;2.03;;;;;;;18.21;50.79;100814.25;2497215;23;20464;-69
2022/05/24 00:55:25;;;;;;;6.50;2.07;;;;;;;18.27;50.85;100829.94;2497105;23;20388;-69
2022/05/24 00:56:47;;;;;;;6.07;2.00;;;;;;;18.35;50.99;100824.00;2497903;23;20163;-69
2022/05/24 00:57:58;;;;;;;3.70;1.77;;;;;;;18.33;51.41;100827.31;2497703;23;20378;-70
2022/05/24 00:59:04;;;;;;;4.63;2.03;;;;;;;18.21;51.23;100805.09;2497859;23;20461;-69
2022/05/24 01:00:11;;;;;;;6.17;1.93;;;;;;;18.26;51.18;100827.63;2497528;23;20749;-69
2022/05/24 01:01:36;;;;;;;3.10;1.93;;;;;;;18.22;51.69;100827.03;2497782;23;20914;-69
2022/05/24 01:02:37;;;;;;;4.43;1.80;;;;;;;17.66;51.90;100757.03;2497127;23;20435;-69
2022/05/24 01:03:37;;;;;;;5.33;2.20;;;;;;;18.17;51.99;100825.66;2496501;23;20385;-69
2022/05/24 01:04:38;;;;;;;3.53;2.20;;;;;;;18.12;52.04;100813.56;2496713;23;20529;-69
2022/05/24 01:05:38;;;;;;;5.00;1.90;;;;;;;18.19;52.04;100828.00;2497305;23;20560;-69
2022/05/24 01:06:39;;;;;;;6.80;2.20;;;;;;;17.74;52.27;100783.47;2496608;23;20153;-69
2022/05/24 01:07:39;;;;;;;3.73;1.73;;;;;;;18.14;52.36;100837.84;2496874;23;20151;-69
2022/05/24 01:08:41;;;;;;;5.90;1.70;;;;;;;17.67;52.43;100770.56;2496321;23;20655;-69
2022/05/24 01:09:41;;;;;;;18.17;2.10;;;;;;;18.17;52.70;100839.69;2496223;23;20148;-69
2022/05/24 01:10:50;;;;;;;8.37;2.03;;;;;;;18.13;52.48;100827.88;2497327;23;20388;-69
2022/05/24 01:11:55;;;;;;;5.43;2.13;;;;;;;18.22;52.54;100837.47;2497485;23;20172;-69
2022/05/24 01:13:16;;;;;;;6.07;2.50;;;;;;;18.08;53.00;100836.94;2497616;23;20783;-69
2022/05/24 01:14:19;;;;;;;9.27;2.20;;;;;;;17.96;53.25;100837.19;2497160;23;20404;-69
2022/05/24 01:15:21;;;;;;;6.23;2.27;;;;;;;17.86;53.47;100832.88;2497136;23;20881;-69
2022/05/24 01:16:21;;;;;;;8.03;2.77;;;;;;;16.84;53.73;100671.91;2497576;23;20391;-69
2022/05/24 01:17:22;;;;;;;7.23;2.60;;;;;;;17.69;53.97;100812.16;2496139;23;20882;-69
2022/05/24 01:18:24;;;;;;;7.83;2.20;;;;;;;17.27;54.09;100767.34;2497524;23;20154;-69
2022/05/24 01:19:34;;;;;;;6.10;2.40;;;;;;;16.96;54.46;100719.28;2496306;23;20151;-69
2022/05/24 01:20:34;;;;;;;4.47;2.30;;;;;;;17.64;54.46;100838.00;2496449;23;20368;-69
2022/05/24 01:21:35;;;;;;;5.00;2.20;;;;;;;17.65;54.54;100831.16;2497028;23;20382;-69
2022/05/24 01:22:44;;;;;;;2.93;1.97;;;;;;;17.69;54.81;100831.75;2497433;23;20735;-69
2022/05/24 01:24:15;;;;;;;6.90;2.13;;;;;;;17.67;54.85;100837.84;2497134;23;20153;-69
2022/05/24 01:25:36;;;;;;;4.53;2.30;;;;;;;17.66;54.67;100843.91;2497286;23;20365;-69
2022/05/24 01:26:51;;;;;;;4.43;2.00;;;;;;;17.70;54.78;100852.94;2496693;23;20392;-69
2022/05/24 01:27:52;;;;;;;5.30;2.33;;;;;;;17.31;55.06;100814.81;2497030;23;20364;-69
2022/05/24 01:28:56;;;;;;;5.87;2.50;;;;;;;17.54;55.23;100853.31;2497080;23;20978;-69
2022/05/24 01:29:56;;;;;;;4.20;2.20;;;;;;;17.50;55.25;100858.31;2496658;23;20231;-69
2022/05/24 01:30:58;;;;;;;7.70;2.47;;;;;;;17.10;55.27;100793.41;2497215;23;20879;-69
2022/05/24 01:36:11;;;;;;;8.07;2.30;;;;;;;17.52;55.64;100850.22;2497191;23;20389;-69
2022/05/24 01:37:12;;;;;;;9.57;2.57;;;;;;;17.05;55.56;100778.03;2496226;23;20828;-70
2022/05/24 01:38:17;;;;;;;5.57;2.50;;;;;;;17.57;55.78;100858.00;2497057;23;20421;-69
2022/05/24 01:39:18;;;;;;;8.50;2.20;;;;;;;17.59;55.44;100858.28;2497176;23;20419;-69
2022/05/24 01:40:18;;;;;;;15.00;3.33;;;;;;;17.63;55.58;100868.06;2496888;23;20389;-69
2022/05/24 01:41:22;;;;;;;12.03;2.77;;;;;;;17.63;55.31;100858.88;2497042;23;20167;-69
2022/05/24 01:42:24;;;;;;;9.67;2.70;;;;;;;17.66;55.26;100860.72;2497412;23;20591;-69
2022/05/24 01:43:26;;;;;;;8.73;2.37;;;;;;;17.28;55.28;100819.34;2497149;23;20385;-69
2022/05/24 01:44:34;;;;;;;6.37;2.40;;;;;;;17.58;55.62;100874.31;2497283;23;20381;-69
2022/05/24 01:45:43;;;;;;;10.77;2.53;;;;;;;17.61;55.65;100861.38;2497221;23;20892;-69
2022/05/24 01:46:46;;;;;;;5.90;2.30;;;;;;;17.48;55.66;100860.03;2496447;23;20385;-69
2022/05/24 01:47:51;;;;;;;4.97;2.40;;;;;;;17.11;55.77;100814.59;2495996;23;20453;-69
2022/05/24 01:48:57;;;;;;;5.33;2.33;;;;;;;17.42;55.85;100857.88;2496630;23;20371;-69
2022/05/24 01:50:01;;;;;;;4.60;2.20;;;;;;;17.48;56.18;100874.06;2496610;23;20415;-69
2022/05/24 01:51:04;;;;;;;7.77;2.23;;;;;;;17.53;56.02;100877.75;2496075;23;20393;-69
2022/05/24 01:52:07;;;;;;;5.33;2.17;;;;;;;17.48;55.97;100857.25;2496689;23;20750;-69
2022/05/24 01:53:24;;;;;;;8.60;2.50;;;;;;;16.92;55.91;100769.09;2496959;23;20457;-69
2022/05/24 01:54:27;;;;;;;6.60;2.10;;;;;;;17.35;55.85;100835.78;2496434;23;20508;-69
2022/05/24 01:55:37;;;;;;;7.83;2.30;;;;;;;17.21;55.63;100810.50;2496452;23;20392;-70
2022/05/24 01:56:41;;;;;;;5.63;2.37;;;;;;;17.71;55.64;100871.28;2496609;23;20409;-69
2022/05/24 01:57:45;;;;;;;5.97;2.10;;;;;;;17.20;55.51;100797.72;2496769;23;20377;-69
2022/05/24 01:58:52;;;;;;;3.80;2.07;;;;;;;17.65;55.29;100870.38;2497264;23;20398;-69
2022/05/24 01:59:56;;;;;;;5.30;2.43;;;;;;;17.49;55.67;100842.00;2496556;23;20383;-69
2022/05/24 02:01:09;;;;;;;6.67;2.20;;;;;;;17.60;55.56;100862.63;2497254;23;20404;-69
2022/05/24 02:02:10;;;;;;;5.17;2.57;;;;;;;17.03;55.63;100799.34;2497144;23;20383;-69
2022/05/24 02:03:11;;;;;;;9.03;2.80;;;;;;;17.49;55.77;100870.03;2496983;23;20381;-69
2022/05/24 02:04:11;;;;;;;14.27;3.57;;;;;;;17.46;56.25;100865.34;2497269;23;20389;-69
2022/05/24 02:05:14;;;;;;;10.57;3.00;;;;;;;17.42;56.13;100873.16;2496930;23;20159;-69
2022/05/24 02:06:25;;;;;;;16.60;3.53;;;;;;;17.44;56.11;100873.47;2497420;23;20599;-69
2022/05/24 02:07:26;;;;;;;11.13;3.40;;;;;;;17.51;56.22;100873.88;2496282;23;20377;-69
2022/05/24 02:08:27;;;;;;;14.53;3.50;;;;;;;17.52;56.43;100876.22;2496970;23;20389;-69
2022/05/24 02:09:28;;;;;;;8.03;2.80;;;;;;;17.52;55.99;100884.63;2497032;23;20185;-69
2022/05/24 02:10:35;;;;;;;5.50;2.33;;;;;;;17.56;56.44;100886.47;2496867;23;20164;-69
2022/05/24 02:11:36;;;;;;;6.97;2.70;;;;;;;17.35;56.18;100871.41;2496923;23;20369;-69
2022/05/24 02:12:44;;;;;;;7.20;2.63;;;;;;;17.56;56.20;100880.88;2497304;23;20468;-69
2022/05/24 02:13:48;;;;;;;15.30;2.90;;;;;;;17.10;56.10;100816.59;2496826;23;20401;-69
2022/05/24 02:14:57;;;;;;;13.93;3.20;;;;;;;17.39;56.18;100855.25;2496741;23;20467;-69
2022/05/24 02:16:01;;;;;;;9.03;3.10;;;;;;;17.49;56.34;100882.00;2497203;23;20368;-69
2022/05/24 02:17:11;;;;;;;5.73;2.60;;;;;;;17.51;56.24;100901.91;2495279;23;20471;-70
2022/05/24 02:18:14;;;;;;;5.43;2.50;;;;;;;17.44;56.38;100895.88;2496254;23;20455;-69
2022/05/24 02:19:16;;;;;;;6.57;2.70;;;;;;;16.29;56.34;100724.44;2496200;23;20403;-69
2022/05/24 02:20:21;;;;;;;6.53;2.70;;;;;;;17.35;56.79;100900.22;2496592;23;20421;-69
2022/05/24 02:21:22;;;;;;;9.57;2.73;;;;;;;17.34;56.48;100897.88;2497011;23;20389;-69
2022/05/24 02:22:26;;;;;;;12.00;2.77;;;;;;;17.32;56.65;100894.78;2497263;23;20867;-69
2022/05/24 02:23:26;;;;;;;6.07;3.00;;;;;;;17.36;56.79;100893.38;2496859;23;20157;-69
2022/05/24 02:24:27;;;;;;;8.70;2.73;;;;;;;17.32;56.68;100895.56;2497204;23;20381;-69
2022/05/24 02:25:45;;;;;;;4.00;2.40;;;;;;;17.17;57.27;100893.91;2496892;23;20607;-69
2022/05/24 02:26:48;;;;;;;8.83;2.80;;;;;;;17.12;57.08;100891.72;2496447;23;20220;-70
2022/05/24 02:27:49;;;;;;;5.17;2.50;;;;;;;17.17;57.37;100902.31;2496753;23;20714;-69
2022/05/24 02:28:52;;;;;;;7.77;2.60;;;;;;;17.09;57.52;100889.88;2497081;23;20448;-69
2022/05/24 02:29:53;;;;;;;4.60;2.57;;;;;;;16.90;57.45;100869.53;2496576;23;20159;-69
2022/05/24 02:30:58;;;;;;;7.33;2.90;;;;;;;17.17;57.36;100902.31;2497222;23;20385;-69
2022/05/24 02:31:59;;;;;;;5.83;2.50;;;;;;;17.14;57.49;100898.41;2497173;23;20380;-69
2022/05/24 02:32:59;;;;;;;6.43;2.57;;;;;;;16.52;57.32;100816.13;2496816;23;20416;-69
2022/05/24 02:34:00;;;;;;;8.40;2.47;;;;;;;17.08;57.55;100905.13;2497193;23;20152;-69
2022/05/24 02:35:00;;;;;;;4.40;2.60;;;;;;;16.82;57.55;100870.31;2496689;23;20611;-69
2022/05/24 02:36:02;;;;;;;8.40;3.03;;;;;;;16.59;57.36;100820.63;2497228;23;20187;-69
2022/05/24 02:37:04;;;;;;;5.80;2.53;;;;;;;16.31;57.70;100791.09;2496017;23;20166;-69
2022/05/24 02:38:05;;;;;;;3.73;2.23;;;;;;;16.59;58.18;100862.59;2496925;23;20385;-69
2022/05/24 02:39:06;;;;;;;4.17;2.70;;;;;;;16.54;58.30;100855.59;2495807;23;20428;-69
2022/05/24 02:41:29;;;;;;;6.93;2.70;;;;;;;16.91;58.19;100904.66;2497062;23;20217;-69
2022/05/24 02:42:30;;;;;;;6.23;2.97;;;;;;;16.86;57.94;100910.13;2497102;23;20713;-69
2022/05/24 02:43:32;;;;;;;6.47;2.67;;;;;;;16.63;58.29;100877.97;2496832;23;20453;-69
2022/05/24 02:44:32;;;;;;;6.20;2.50;;;;;;;16.73;58.40;100901.91;2497106;23;20377;-69
2022/05/24 02:45:33;;;;;;;8.63;2.73;;;;;;;16.74;58.60;100894.28;2496978;23;20388;-69
2022/05/24 02:46:36;;;;;;;7.80;3.10;;;;;;;16.79;58.53;100899.25;2496352;23;20546;-69
2022/05/24 02:47:36;;;;;;;6.23;2.87;;;;;;;16.80;58.60;100898.78;2496471;23;20157;-70
2022/05/24 02:48:37;;;;;;;7.17;2.87;;;;;;;16.75;58.18;100890.25;2497135;23;20381;-69
2022/05/24 02:49:38;;;;;;;4.90;2.73;;;;;;;16.78;58.36;100894.91;2496872;23;20188;-69
2022/05/24 02:50:38;;;;;;;7.20;2.90;;;;;;;16.28;58.67;100817.97;2496754;23;20180;-69
2022/05/24 02:51:41;;;;;;;10.23;2.90;;;;;;;16.88;58.46;100897.22;2496886;23;20204;-69
2022/05/24 02:52:42;;;;;;;10.63;2.70;;;;;;;16.80;58.23;100875.63;2497181;23;20611;-69
2022/05/24 02:53:44;;;;;;;8.10;2.70;;;;;;;16.94;58.23;100886.94;2496770;23;20708;-69
2022/05/24 02:54:45;;;;;;;4.77;2.50;;;;;;;17.01;58.03;100892.22;2496920;23;20664;-69
2022/05/24 02:55:45;;;;;;;9.27;2.97;;;;;;;16.75;58.27;100851.81;2496861;23;20403;-69
2022/05/24 02:56:46;;;;;;;13.60;3.23;;;;;;;17.05;58.18;100884.44;2496127;23;20160;-69
2022/05/24 02:57:46;;;;;;;5.83;2.83;;;;;;;17.07;58.21;100883.97;2496776;23;20215;-69
2022/05/24 02:58:47;;;;;;;5.50;2.33;;;;;;;17.09;58.25;100885.06;2497241;23;20160;-69
2022/05/24 02:59:47;;;;;;;7.77;2.70;;;;;;;16.29;57.77;100758.00;2496336;23;20156;-69
2022/05/24 03:00:48;;;;;;;6.30;2.57;;;;;;;17.16;58.01;100887.50;2496958;23;20596;-70
2022/05/24 03:01:49;;;;;;;8.23;2.80;;;;;;;17.16;57.60;100881.16;2496700;23;20160;-69
2022/05/24 03:02:50;;;;;;;6.37;2.90;;;;;;;17.19;57.82;100894.19;2495863;23;20204;-69
2022/05/24 03:03:52;;;;;;;6.13;2.30;;;;;;;17.18;57.76;100884.25;2496180;23;20563;-69
2022/05/24 03:04:53;;;;;;;8.03;2.30;;;;;;;17.17;57.58;100891.84;2497000;23;20790;-69
2022/05/24 03:05:53;;;;;;;4.87;2.70;;;;;;;16.98;57.41;100849.63;2497063;23;20389;-69
2022/05/24 03:09:35;;;;;;;7.03;2.77;;;;;;;17.21;57.65;100881.28;2496982;23;20424;-69
2022/05/24 03:10:37;;;;;;;8.37;2.80;;;;;;;17.15;57.91;100894.38;2496672;23;20384;-69
2022/05/24 03:14:18;;;;;;;17.47;3.70;;;;;;;16.70;57.82;100823.72;2497005;23;20358;-69
2022/05/24 03:15:19;;;;;;;12.97;3.37;;;;;;;16.64;57.63;100812.38;2496609;23;20559;-69
2022/05/24 03:16:19;;;;;;;13.83;3.30;;;;;;;16.35;58.14;100777.72;2497179;23;20385;-69
2022/05/24 03:17:21;;;;;;;9.20;3.13;;;;;;;16.84;57.61;100840.63;2495507;23;20167;-69
2022/05/24 03:18:22;;;;;;;12.90;3.40;;;;;;;17.14;57.87;100892.81;2496194;23;20164;-69
2022/05/24 03:19:23;;;;;;;8.27;3.00;;;;;;;17.14;58.09;100892.03;2496086;23;20381;-69
2022/05/24 03:20:23;;;;;;;10.43;4.70;;;;;;;16.58;57.99;100821.09;2496506;23;20376;-69
2022/05/24 03:21:24;;;;;;;5.73;3.50;;;;;;;17.09;58.03;100901.84;2496912;23;20156;-69
2022/05/24 03:22:24;;;;;;;5.87;2.60;;;;;;;16.39;58.03;100806.34;2496860;23;20153;-69
2022/05/24 03:23:25;;;;;;;6.87;2.90;;;;;;;16.99;57.99;100905.13;2496640;23;20538;-69
2022/05/24 03:24:25;;;;;;;6.37;2.30;;;;;;;17.02;58.36;100901.41;2496944;23;20152;-69
2022/05/24 03:25:26;;;;;;;6.77;2.70;;;;;;;17.02;58.42;100912.59;2496604;23;20152;-69
2022/05/24 03:26:26;;;;;;;5.57;2.67;;;;;;;16.53;58.37;100828.06;2496671;23;20178;-69
2022/05/24 03:27:27;;;;;;;4.47;2.50;;;;;;;17.12;57.93;100916.94;2496117;23;20154;-69
2022/05/24 03:28:28;;;;;;;5.57;2.50;;;;;;;16.71;58.02;100854.00;2496986;23;20187;-69
2022/05/24 03:29:29;;;;;;;5.87;2.43;;;;;;;17.17;57.92;100922.66;2495653;23;20218;-69
2022/05/24 03:30:31;;;;;;;3.93;2.23;;;;;;;17.18;57.62;100917.84;2495863;23;20377;-69
2022/05/24 03:31:32;;;;;;;5.53;2.30;;;;;;;17.22;57.88;100916.44;2496738;23;20148;-69
2022/05/24 03:32:36;;;;;;;5.30;2.40;;;;;;;17.25;57.79;100923.91;2496919;23;20381;-69
2022/05/24 03:33:36;;;;;;;5.97;2.50;;;;;;;17.25;57.75;100923.91;2495805;23;20392;-69
2022/05/24 03:34:38;;;;;;;4.67;2.67;;;;;;;17.18;57.51;100915.84;2496166;23;20391;-69
2022/05/24 03:35:39;;;;;;;4.93;2.80;;;;;;;17.00;57.72;100915.09;2496689;23;20492;-69
2022/05/24 03:36:40;;;;;;;8.27;2.80;;;;;;;16.74;58.23;100902.66;2496098;23;20417;-69
2022/05/24 03:37:41;;;;;;;4.73;2.60;;;;;;;16.66;58.27;100884.66;2496410;23;20876;-69
2022/05/24 03:38:42;;;;;;;3.70;2.30;;;;;;;17.03;58.44;100920.53;2496610;23;20160;-69
2022/05/24 03:39:42;;;;;;;5.70;2.60;;;;;;;17.09;58.17;100929.06;2496353;23;20376;-69
2022/05/24 03:40:43;;;;;;;3.93;2.10;;;;;;;16.72;58.59;100860.38;2496790;23;20396;-69
2022/05/24 03:41:45;;;;;;;4.80;2.30;;;;;;;17.18;58.27;100946.66;2496698;23;20155;-69
2022/05/24 03:42:47;;;;;;;5.47;2.73;;;;;;;17.02;58.03;100893.78;2496909;23;20509;-69
2022/05/24 03:43:47;;;;;;;3.70;2.20;;;;;;;17.26;58.39;100927.50;2496773;23;20385;-69
2022/05/24 03:44:48;;;;;;;7.63;2.40;;;;;;;16.47;57.94;100815.19;2496839;23;20405;-69
2022/05/24 03:45:49;;;;;;;4.50;2.37;;;;;;;17.31;57.96;100933.22;2496735;23;20629;-69
2022/05/24 03:46:51;;;;;;;5.60;2.70;;;;;;;17.31;57.79;100938.81;2496188;23;20182;-69
2022/05/24 03:47:52;;;;;;;6.33;2.17;;;;;;;17.33;57.84;100946.75;2496368;23;20444;-69
2022/05/24 03:48:52;;;;;;;5.03;2.40;;;;;;;17.27;57.58;100943.03;2496870;23;20420;-69
2022/05/24 03:49:53;;;;;;;6.13;2.40;;;;;;;17.36;57.86;100957.78;2496224;23;20389;-69
2022/05/24 03:50:54;;;;;;;6.07;2.70;;;;;;;17.42;57.62;100957.97;2496766;23;20154;-69
2022/05/24 03:51:54;;;;;;;7.27;2.70;;;;;;;16.95;57.57;100884.94;2496739;23;20164;-69
2022/05/24 03:52:54;;;;;;;7.90;2.63;;;;;;;17.42;57.78;100964.34;2496781;23;20388;-69
2022/05/24 03:53:55;;;;;;;5.30;2.30;;;;;;;16.86;57.60;100888.50;2496739;23;20166;-69
2022/05/24 03:54:56;;;;;;;6.93;2.53;;;;;;;17.42;57.94;100978.34;2496781;23;20156;-69
2022/05/24 03:55:57;;;;;;;7.70;2.30;;;;;;;17.36;58.11;100965.44;2496957;23;20168;-69
2022/05/24 03:58:17;;;;;;;5.70;2.57;;;;;;;17.42;57.72;100969.94;2496569;23;20148;-69
2022/05/24 03:59:18;;;;;;;12.00;2.67;;;;;;;17.34;57.64;100959.50;2496526;23;20732;-69
2022/05/24 04:00:20;;;;;;;8.67;2.90;;;;;;;17.17;58.07;100961.13;2496206;23;20397;-69
2022/05/24 04:01:21;;;;;;;6.87;2.60;;;;;;;17.03;57.72;100953.34;2495571;23;20163;-69
2022/05/24 04:02:21;;;;;;;6.97;2.47;;;;;;;17.14;58.03;100971.22;2496516;23;20930;-69
2022/05/24 04:03:22;;;;;;;4.60;2.40;;;;;;;17.02;58.35;100963.00;2496609;23;20242;-69
2022/05/24 04:04:22;;;;;;;6.80;2.87;;;;;;;16.67;58.22;100914.19;2497019;23;20179;-69
2022/05/24 04:05:23;;;;;;;4.60;2.40;;;;;;;16.56;58.22;100905.47;2496479;23;20210;-69
2022/05/24 04:06:25;;;;;;;3.83;2.33;;;;;;;16.97;58.58;100972.03;2496781;23;20181;-69
2022/05/24 04:07:25;;;;;;;6.23;2.50;;;;;;;16.31;58.62;100867.38;2495752;23;20392;-69
2022/05/24 04:08:26;;;;;;;3.10;2.40;;;;;;;16.85;58.73;100968.13;2496772;23;20231;-69
2022/05/24 04:09:27;;;;;;;9.87;2.90;;;;;;;16.84;58.98;100977.00;2495548;23;20277;-69
2022/05/24 04:10:29;;;;;;;10.60;2.67;;;;;;;16.83;59.25;100984.63;2495714;23;20152;-69
2022/05/24 04:11:29;;;;;;;5.47;2.73;;;;;;;16.86;59.17;100992.06;2496558;23;20162;-70
2022/05/24 04:12:30;;;;;;;10.30;2.77;;;;;;;16.83;59.25;100988.69;2496610;23;20387;-69
2022/05/24 04:13:31;;;;;;;5.23;2.40;;;;;;;16.76;59.37;100970.16;2496557;23;20154;-70
2022/05/24 04:14:32;;;;;;;8.03;2.63;;;;;;;16.81;59.41;100989.88;2496669;23;20149;-69
2022/05/24 04:15:33;;;;;;;6.70;2.60;;;;;;;16.77;59.36;100996.91;2496690;23;20470;-69
2022/05/24 04:16:33;;;;;;;5.23;2.67;;;;;;;16.76;59.04;100990.50;2496311;23;20370;-69
2022/05/24 04:17:34;;;;;;;6.67;2.50;;;;;;;16.63;59.58;100977.16;2496289;23;20165;-69
2022/05/24 04:18:36;;;;;;;5.20;2.90;;;;;;;16.76;59.72;100998.91;2496956;23;20164;-69
2022/05/24 04:19:36;;;;;;;3.17;2.40;;;;;;;16.79;59.64;100991.59;2496504;23;20154;-69
2022/05/24 04:20:37;;;;;;;5.27;2.83;;;;;;;16.90;59.27;101000.34;2495380;23;20387;-69
2022/05/24 04:21:37;;;;;;;6.00;2.50;;;;;;;16.92;59.61;101000.63;2495766;23;20511;-69
2022/05/24 04:22:37;;;;;;;6.90;3.03;;;;;;;16.88;59.50;100998.00;2496900;23;20509;-69
2022/05/24 04:23:38;;;;;;;10.57;3.30;;;;;;;16.30;59.51;100904.97;2496434;23;20158;-70
2022/05/24 04:24:38;;;;;;;6.73;2.90;;;;;;;16.89;59.71;100996.75;2496852;23;20156;-69
2022/05/24 04:25:39;;;;;;;6.33;2.97;;;;;;;16.96;59.79;101004.06;2496623;23;20150;-69
2022/05/24 04:26:40;;;;;;;5.27;2.63;;;;;;;17.04;59.76;101005.28;2496097;23;20178;-69
2022/05/24 04:27:41;;;;;;;5.67;2.70;;;;;;;17.05;59.59;100998.47;2496297;23;20153;-69
2022/05/24 04:28:42;;;;;;;6.07;2.47;;;;;;;17.02;59.57;100996.59;2496829;23;20436;-69
2022/05/24 04:29:42;;;;;;;7.37;2.67;;;;;;;17.13;59.22;100985.69;2496107;23;20528;-69
2022/05/24 04:30:43;;;;;;;6.23;2.20;;;;;;;16.86;58.85;100930.50;2496939;23;20163;-69
2022/05/24 04:31:43;;;;;;;6.27;2.27;;;;;;;17.36;59.03;100999.81;2496891;23;20160;-69
2022/05/24 04:32:44;;;;;;;3.87;2.30;;;;;;;17.40;58.06;101001.72;2496768;23;20184;-69
2022/05/24 04:33:45;;;;;;;5.77;2.40;;;;;;;17.45;57.84;100998.28;2496492;23;20180;-69
2022/05/24 04:34:46;;;;;;;9.77;3.47;;;;;;;17.43;58.20;101004.34;2495872;23;20297;-69
2022/05/24 04:35:46;;;;;;;10.83;3.10;;;;;;;17.52;58.20;101006.34;2495889;23;20965;-69
2022/05/24 04:36:47;;;;;;;6.30;2.77;;;;;;;17.63;58.13;100999.03;2496131;23;20634;-69
2022/05/24 04:37:47;;;;;;;5.27;2.60;;;;;;;17.02;57.91;100916.19;2496584;23;20157;-70
2022/05/24 04:38:48;;;;;;;3.77;2.40;;;;;;;17.65;57.98;101004.91;2497241;23;20160;-69
2022/05/24 04:39:49;;;;;;;6.33;2.33;;;;;;;17.68;57.47;101003.97;2495976;23;20158;-69
2022/05/24 04:42:24;;;;;;;5.17;2.73;;;;;;;17.69;56.62;100994.31;2497681;23;20144;-70
2022/05/24 04:43:25;;;;;;;4.23;2.40;;;;;;;17.68;55.72;101001.94;2497365;23;20701;-69
2022/05/24 04:44:25;;;;;;;5.67;2.60;;;;;;;17.18;55.85;100931.84;2497693;23;20400;-69
2022/05/24 04:45:26;;;;;;;7.70;2.73;;;;;;;17.67;56.18;100992.00;2497397;23;20184;-69
2022/05/24 04:47:06;;;;;;;6.30;2.60;;;;;;;17.82;56.03;101002.53;2497360;23;20156;-69
2022/05/24 04:47:46;;;;;;;5.13;2.60;;;;;;;17.85;56.21;101004.41;2496684;23;20190;-69
2022/05/24 04:48:47;;;;;;;5.77;2.67;;;;;;;17.41;55.83;100919.22;2497352;23;20377;-70
2022/05/24 04:49:53;;;;;;;5.77;2.37;;;;;;;18.03;55.42;101002.31;2496832;23;20152;-69
2022/05/24 04:50:56;;;;;;;4.53;2.20;;;;;;;18.02;55.41;101012.72;2497526;23;20152;-69
2022/05/24 04:51:57;;;;;;;3.73;2.30;;;;;;;17.73;54.58;100956.47;2497387;23;20395;-69
2022/05/24 04:52:57;;;;;;;6.93;2.57;;;;;;;18.10;53.97;101004.75;2497400;23;20415;-69
2022/05/24 04:53:58;;;;;;;6.57;2.70;;;;;;;18.15;53.96;101001.31;2497388;23;20629;-69
2022/05/24 04:54:58;;;;;;;6.30;2.40;;;;;;;18.16;53.68;101008.47;2497135;23;20318;-69
2022/05/24 04:55:59;;;;;;;7.60;2.43;;;;;;;18.23;53.72;101004.53;2497413;23;20190;-69
2022/05/24 04:56:59;;;;;;;4.30;2.50;;;;;;;18.11;53.62;101005.53;2496618;23;20166;-69
2022/05/24 04:57:59;;;;;;;4.07;2.63;;;;;;;18.01;53.94;100979.53;2496349;23;20695;-69
2022/05/24 04:59:00;;;;;;;4.23;2.23;;;;;;;18.28;53.82;101001.88;2496516;23;20156;-69
2022/05/24 05:00:04;;;;;;;6.00;2.50;;;;;;;17.40;53.85;100856.81;2497050;23;20403;-69
2022/05/24 05:01:04;;;;;;;4.83;2.17;;;;;;;17.48;52.96;100860.03;2497066;23;20166;-69
2022/05/24 05:02:06;;;;;;;6.70;2.10;;;;;;;18.39;53.26;101009.78;2497191;23;20424;-69
2022/05/24 05:03:11;;;;;;;4.37;2.30;;;;;;;18.38;53.11;101008.22;2497053;23;20163;-69
2022/05/24 05:04:12;;;;;;;4.80;2.57;;;;;;;18.46;53.08;101013.00;2497595;23;20408;-69
2022/05/24 05:05:15;;;;;;;8.23;2.80;;;;;;;18.41;53.18;101004.44;2497253;23;20383;-69
2022/05/24 05:06:17;;;;;;;3.93;2.07;;;;;;;18.41;53.18;101002.44;2497627;23;20160;-69